Time;durP1;ratioP1;P1;durP2;ratioP2;P2;SDS_P1;SDS_P2;PMS_P1;PMS_P2;Temp;Humidity;BMP_temperature;BMP_pressure;BME280_temperature;BME280_humidity;BME280_pressure;Samples;Min_cycle;Max_cycle;Signal;HPM_P1;HPM_P2
2021/08/11 00:00:27;;;;;;;6.30;3.60;;;;;;;18.29;100.00;96204.34;1044270;28;20386;-70
2021/08/11 00:00:58;;;;;;;9.53;4.23;;;;;;;18.29;100.00;96198.94;1043845;28;20017;-69
2021/08/11 00:01:28;;;;;;;10.87;4.87;;;;;;;18.29;100.00;96200.84;1043870;28;20017;-69
2021/08/11 00:01:59;;;;;;;8.07;4.20;;;;;;;18.28;100.00;96207.38;1043757;28;20032;-69
2021/08/11 00:02:29;;;;;;;8.33;4.20;;;;;;;18.26;100.00;96202.25;1043539;28;20032;-69
2021/08/11 00:03:00;;;;;;;8.47;4.73;;;;;;;18.25;100.00;96202.59;1043955;28;20032;-69
2021/08/11 00:03:30;;;;;;;8.73;4.10;;;;;;;18.25;100.00;96211.50;1046029;28;20028;-69
2021/08/11 00:04:00;;;;;;;8.03;4.40;;;;;;;18.25;100.00;96208.78;1048417;28;20020;-69
2021/08/11 00:04:31;;;;;;;8.33;4.70;;;;;;;18.23;100.00;96208.31;1048372;28;20027;-69
2021/08/11 00:05:01;;;;;;;11.80;3.90;;;;;;;18.25;100.00;96208.00;1044142;28;20024;-69
2021/08/11 00:05:32;;;;;;;9.37;4.87;;;;;;;18.23;100.00;96196.69;1044304;28;20024;-69
2021/08/11 00:06:03;;;;;;;10.07;4.53;;;;;;;18.24;100.00;96207.19;1044235;28;20020;-69
2021/08/11 00:06:33;;;;;;;13.75;4.88;;;;;;;18.22;100.00;96209.44;1044031;28;20108;-69
2021/08/11 00:07:03;;;;;;;9.23;4.60;;;;;;;18.24;100.00;96196.38;1043989;28;20084;-69
2021/08/11 00:07:34;;;;;;;8.33;4.10;;;;;;;18.25;100.00;96202.59;1043971;28;20091;-70
2021/08/11 00:08:04;;;;;;;8.13;4.27;;;;;;;18.25;100.00;96202.59;1043922;28;20082;-69
2021/08/11 00:08:35;;;;;;;7.67;4.37;;;;;;;18.25;100.00;96210.69;1044315;28;20063;-69
2021/08/11 00:09:05;;;;;;;11.00;4.57;;;;;;;18.27;100.00;96209.28;1044218;28;20025;-69
2021/08/11 00:09:35;;;;;;;10.23;4.63;;;;;;;18.27;100.00;96205.75;1044288;28;20025;-69
2021/08/11 00:10:06;;;;;;;8.80;4.10;;;;;;;18.28;100.00;96204.69;1043804;28;20032;-69
2021/08/11 00:10:37;;;;;;;11.80;4.40;;;;;;;18.29;100.00;96195.44;1043896;28;20025;-69
2021/08/11 00:11:07;;;;;;;12.93;4.50;;;;;;;18.29;100.00;96200.84;1043955;28;20059;-69
2021/08/11 00:11:38;;;;;;;11.83;4.90;;;;;;;18.30;100.00;96205.16;1039915;28;20064;-69
2021/08/11 00:12:08;;;;;;;12.17;4.47;;;;;;;18.30;100.00;96199.72;1043527;28;20091;-69
2021/08/11 00:12:38;;;;;;;8.90;4.57;;;;;;;18.31;100.00;96206.72;1043972;28;20420;-69
2021/08/11 00:13:09;;;;;;;8.50;4.20;;;;;;;18.31;100.00;96204.03;1043964;28;20021;-69
2021/08/11 00:13:39;;;;;;;9.33;4.67;;;;;;;18.32;100.00;96203.72;1044290;28;20016;-69
2021/08/11 00:14:10;;;;;;;10.20;4.40;;;;;;;18.30;100.00;96199.72;1044241;28;20097;-69
2021/08/11 00:14:40;;;;;;;9.50;3.97;;;;;;;18.32;100.00;96203.72;1044335;28;20025;-69
2021/08/11 00:15:11;;;;;;;9.40;4.10;;;;;;;18.31;100.00;96206.72;1044389;28;20021;-69
2021/08/11 00:15:41;;;;;;;8.27;4.27;;;;;;;18.33;100.00;96210.72;1044271;28;20487;-70
2021/08/11 00:16:12;;;;;;;8.47;4.53;;;;;;;18.31;100.00;96206.72;1044176;28;20017;-69
2021/08/11 00:16:42;;;;;;;11.70;4.60;;;;;;;18.30;100.00;96203.22;1044145;28;20516;-69
2021/08/11 00:17:12;;;;;;;9.97;4.57;;;;;;;18.30;100.00;96211.34;1044253;28;20083;-70
2021/08/11 00:17:43;;;;;;;8.80;4.67;;;;;;;18.25;100.00;96208.00;1044251;28;20090;-69
2021/08/11 00:18:14;;;;;;;8.30;4.40;;;;;;;18.25;100.00;96208.00;1044224;28;20063;-69
2021/08/11 00:18:45;;;;;;;11.45;4.60;;;;;;;18.24;100.00;96209.91;1043844;28;20045;-69
2021/08/11 00:19:15;;;;;;;9.03;4.40;;;;;;;18.23;100.00;96212.94;1043899;28;20017;-69
2021/08/11 00:19:46;;;;;;;9.47;4.60;;;;;;;18.22;100.00;96216.72;1043933;28;20025;-69
2021/08/11 00:20:16;;;;;;;9.60;4.30;;;;;;;18.19;100.00;96215.47;1043837;28;20028;-69
2021/08/11 00:20:46;;;;;;;9.03;4.23;;;;;;;18.16;100.00;96206.03;1044327;28;20033;-69
2021/08/11 00:21:17;;;;;;;8.63;4.63;;;;;;;18.15;100.00;96214.47;1044275;28;20021;-69
2021/08/11 00:21:47;;;;;;;12.20;4.00;;;;;;;18.15;100.00;96217.97;1044591;28;20033;-70
2021/08/11 00:22:18;;;;;;;7.10;4.60;;;;;;;18.15;100.00;96214.47;1043819;28;20029;-70
2021/08/11 00:22:48;;;;;;;7.60;4.00;;;;;;;18.14;100.00;96212.88;1044169;28;20036;-70
2021/08/11 00:23:19;;;;;;;10.53;4.20;;;;;;;18.13;100.00;96205.91;1043722;28;20051;-70
2021/08/11 00:23:49;;;;;;;9.13;4.57;;;;;;;18.09;100.00;96213.81;1043925;28;20426;-69
2021/08/11 00:24:19;;;;;;;9.40;4.10;;;;;;;18.09;100.00;96213.81;1043952;28;20024;-69
2021/08/11 00:24:50;;;;;;;6.90;4.03;;;;;;;18.09;100.00;96218.44;1044048;28;20021;-69
2021/08/11 00:25:20;;;;;;;7.83;3.77;;;;;;;18.11;100.00;96208.88;1044098;28;20024;-70
2021/08/11 00:25:54;;;;;;;7.80;4.30;;;;;;;18.10;100.00;96211.91;1043970;28;20021;-70
2021/08/11 00:26:24;;;;;;;8.55;4.20;;;;;;;18.10;100.00;96211.91;1043853;28;20132;-70
2021/08/11 00:26:54;;;;;;;7.97;4.30;;;;;;;18.08;100.00;96214.16;1043929;28;20481;-70
2021/08/11 00:27:25;;;;;;;8.30;4.70;;;;;;;18.08;100.00;96214.94;1043972;28;20560;-69
2021/08/11 00:27:55;;;;;;;9.33;4.27;;;;;;;18.04;100.00;96205.84;1044297;28;20017;-69
2021/08/11 00:28:26;;;;;;;13.47;4.60;;;;;;;18.02;100.00;96215.41;1044250;28;20021;-69
2021/08/11 00:28:56;;;;;;;8.40;4.17;;;;;;;17.99;100.00;96216.81;1044311;28;20385;-70
2021/08/11 00:29:27;;;;;;;7.57;4.67;;;;;;;17.99;100.00;96221.41;1044280;28;20025;-70
2021/08/11 00:29:57;;;;;;;9.17;4.53;;;;;;;17.99;100.00;96210.59;1043881;28;20025;-69
2021/08/11 00:30:27;;;;;;;7.97;4.30;;;;;;;17.99;100.00;96216.81;1043838;28;20017;-69
2021/08/11 00:30:58;;;;;;;9.07;4.60;;;;;;;17.96;100.00;96212.00;1043899;28;20028;-70
2021/08/11 00:31:29;;;;;;;9.63;4.30;;;;;;;17.98;100.00;96214.41;1043973;28;20017;-70
2021/08/11 00:32:00;;;;;;;11.45;4.70;;;;;;;17.98;100.00;96219.81;1044275;28;20025;-70
2021/08/11 00:32:31;;;;;;;9.23;4.77;;;;;;;18.00;100.00;96210.28;1043795;28;20020;-70
2021/08/11 00:33:01;;;;;;;7.37;3.83;;;;;;;18.00;100.00;96210.28;1044165;28;20117;-70
2021/08/11 00:33:32;;;;;;;12.43;4.40;;;;;;;17.98;100.00;96209.00;1044230;28;20255;-70
2021/08/11 00:34:02;;;;;;;8.97;4.23;;;;;;;17.95;100.00;96209.63;1044294;28;20028;-69
2021/08/11 00:34:33;;;;;;;8.20;4.33;;;;;;;17.96;100.00;96209.31;1044153;28;20071;-69
2021/08/11 00:35:04;;;;;;;9.30;3.90;;;;;;;17.96;100.00;96212.00;1044186;28;20029;-69
2021/08/11 00:35:34;;;;;;;9.57;4.80;;;;;;;17.93;100.00;96212.66;1044256;28;20056;-69
2021/08/11 00:36:04;;;;;;;9.60;5.07;;;;;;;17.93;100.00;96212.66;1044259;28;20021;-69
2021/08/11 00:36:35;;;;;;;9.57;4.73;;;;;;;17.92;100.00;96211.06;1044264;28;20013;-69
2021/08/11 00:37:05;;;;;;;9.97;5.13;;;;;;;17.88;100.00;96219.00;1044221;28;20024;-69
2021/08/11 00:37:36;;;;;;;7.77;4.43;;;;;;;17.89;100.00;96214.38;1044269;28;20373;-69
2021/08/11 00:38:06;;;;;;;10.07;4.53;;;;;;;17.91;100.00;96220.25;1044331;28;20327;-69
2021/08/11 00:38:37;;;;;;;13.77;4.53;;;;;;;17.93;100.00;96215.34;1044325;28;20466;-70
2021/08/11 00:39:07;;;;;;;8.63;4.27;;;;;;;17.92;100.00;96214.56;1044231;28;20024;-70
2021/08/11 00:39:39;;;;;;;8.77;4.60;;;;;;;17.93;100.00;96218.84;1044274;28;20382;-69
2021/08/11 00:40:10;;;;;;;10.48;4.53;;;;;;;17.93;100.00;96218.06;1044178;28;20027;-70
2021/08/11 00:40:40;;;;;;;8.10;4.10;;;;;;;17.90;100.00;96215.97;1043705;28;20028;-70
2021/08/11 00:41:11;;;;;;;7.30;4.03;;;;;;;17.92;100.00;96219.97;1043854;28;20025;-70
2021/08/11 00:41:44;;;;;;;8.57;4.40;;;;;;;17.92;100.00;96219.16;1043925;28;20013;-70
2021/08/11 00:42:15;;;;;;;10.35;4.68;;;;;;;17.90;100.00;96219.47;1040301;28;20024;-69
2021/08/11 00:42:46;;;;;;;7.20;4.30;;;;;;;17.89;100.00;96217.88;1043929;28;20055;-70
2021/08/11 00:43:16;;;;;;;9.77;5.07;;;;;;;17.88;100.00;96219.00;1043857;28;20028;-70
2021/08/11 00:43:46;;;;;;;7.90;4.50;;;;;;;17.85;100.00;96216.09;1043918;28;20021;-70
2021/08/11 00:44:17;;;;;;;8.80;4.70;;;;;;;17.86;100.00;96217.69;1043937;28;20017;-70
2021/08/11 00:44:47;;;;;;;8.90;4.87;;;;;;;17.86;100.00;96218.50;1043863;28;20017;-70
2021/08/11 00:45:18;;;;;;;8.93;4.87;;;;;;;17.87;100.00;96217.41;1039780;28;20128;-70
2021/08/11 00:45:48;;;;;;;6.77;4.27;;;;;;;17.89;100.00;96222.47;1039787;28;20026;-69
2021/08/11 00:46:19;;;;;;;8.97;4.50;;;;;;;17.87;100.00;96220.09;1043936;28;20103;-69
2021/08/11 00:46:50;;;;;;;8.47;4.47;;;;;;;17.90;100.00;96218.66;1043968;28;20539;-69
2021/08/11 00:47:21;;;;;;;9.27;4.82;;;;;;;17.86;100.00;96223.91;1044197;28;20382;-69
2021/08/11 00:47:51;;;;;;;11.43;4.80;;;;;;;17.87;100.00;96222.00;1043591;28;20021;-69
2021/08/11 00:48:24;;;;;;;9.03;4.50;;;;;;;17.88;100.00;96220.91;1043923;28;20013;-70
2021/08/11 00:48:55;;;;;;;14.88;5.35;;;;;;;17.86;100.00;96223.91;1043953;28;20017;-69
2021/08/11 00:49:25;;;;;;;11.02;4.32;;;;;;;17.90;100.00;96221.38;1040207;28;20010;-70
2021/08/11 00:49:56;;;;;;;8.77;4.37;;;;;;;17.89;100.00;96222.47;1043919;28;20036;-70
2021/08/11 00:50:26;;;;;;;10.33;4.90;;;;;;;17.85;100.00;96221.50;1043905;28;20028;-69
2021/08/11 00:50:57;;;;;;;8.63;4.53;;;;;;;17.84;100.00;96211.81;1043760;28;20112;-70
2021/08/11 00:51:28;;;;;;;8.47;4.37;;;;;;;17.85;100.00;96216.88;1043696;28;20017;-69
2021/08/11 00:51:58;;;;;;;6.40;4.20;;;;;;;17.85;100.00;96216.09;1043975;28;20032;-69
2021/08/11 00:52:28;;;;;;;11.67;4.87;;;;;;;17.84;100.00;96209.91;1043989;28;20013;-70
2021/08/11 00:52:59;;;;;;;10.00;5.20;;;;;;;17.84;100.00;96217.22;1043788;28;20523;-70
2021/08/11 00:53:29;;;;;;;9.03;4.27;;;;;;;17.80;100.00;96219.72;1044159;28;20024;-70
2021/08/11 00:54:00;;;;;;;11.53;4.83;;;;;;;17.79;100.00;96223.53;1035708;28;20077;-68
2021/08/11 00:54:30;;;;;;;9.20;5.00;;;;;;;17.80;100.00;96216.22;1031605;28;20085;-69
2021/08/11 00:55:01;;;;;;;10.10;4.37;;;;;;;17.78;100.00;96218.47;1027709;28;20077;-69
2021/08/11 00:55:33;;;;;;;12.03;5.30;;;;;;;17.71;100.00;96212.66;1027756;28;20018;-69
2021/08/11 00:56:04;;;;;;;12.35;4.78;;;;;;;17.68;100.00;96212.16;1031975;28;20017;-69
2021/08/11 00:56:34;;;;;;;7.87;4.50;;;;;;;17.63;100.00;96220.41;1036146;28;20040;-69
2021/08/11 00:57:05;;;;;;;12.23;4.93;;;;;;;17.57;100.00;96215.44;1039850;28;20013;-69
2021/08/11 00:57:35;;;;;;;15.03;4.33;;;;;;;17.59;100.00;96216.72;1040143;28;20021;-69
2021/08/11 00:58:09;;;;;;;8.17;4.33;;;;;;;17.65;100.00;96225.50;1044042;28;20485;-69
2021/08/11 00:58:40;;;;;;;8.27;4.65;;;;;;;17.65;100.00;96220.88;1040115;28;20021;-69
2021/08/11 00:59:10;;;;;;;8.33;4.37;;;;;;;17.63;100.00;96220.41;1048127;28;20071;-69
2021/08/11 00:59:41;;;;;;;10.13;4.80;;;;;;;17.62;100.00;96223.44;1043902;28;20032;-69
2021/08/11 01:00:13;;;;;;;8.73;4.47;;;;;;;17.61;100.00;96219.94;1039742;28;20033;-69
2021/08/11 01:00:44;;;;;;;8.75;4.45;;;;;;;17.62;100.00;96220.72;1031376;28;20154;-69
2021/08/11 01:01:15;;;;;;;9.10;4.43;;;;;;;17.62;100.00;96224.22;1028040;28;20088;-69
2021/08/11 01:01:46;;;;;;;9.03;4.90;;;;;;;17.62;100.00;96221.53;1032121;28;20513;-69
2021/08/11 01:02:17;;;;;;;12.67;4.47;;;;;;;17.62;100.00;96229.63;1032121;28;20030;-69
2021/08/11 01:02:47;;;;;;;8.98;4.50;;;;;;;17.63;100.00;96225.03;1031783;28;20101;-69
2021/08/11 01:03:22;;;;;;;7.23;4.27;;;;;;;17.64;100.00;96221.19;1031716;28;20096;-70
2021/08/11 01:03:54;;;;;;;11.02;4.50;;;;;;;17.62;100.00;96218.03;1032300;28;20113;-69
2021/08/11 01:04:25;;;;;;;9.25;4.50;;;;;;;17.64;100.00;96218.50;1036580;28;20014;-69
2021/08/11 01:04:58;;;;;;;10.25;4.90;;;;;;;17.60;100.00;96220.22;1041205;28;20022;-70
2021/08/11 01:05:28;;;;;;;10.82;4.38;;;;;;;17.59;100.00;96224.81;1040526;28;20029;-69
2021/08/11 01:06:00;;;;;;;11.53;4.80;;;;;;;17.60;100.00;96218.31;1040493;28;20474;-69
2021/08/11 01:06:30;;;;;;;8.02;4.55;;;;;;;17.60;100.00;96212.91;1035910;28;20040;-69
2021/08/11 01:07:02;;;;;;;8.70;4.37;;;;;;;17.61;100.00;96228.03;1032735;28;20419;-69
2021/08/11 01:07:32;;;;;;;12.70;4.63;;;;;;;17.59;100.00;96222.13;1036892;28;20029;-69
2021/08/11 01:08:03;;;;;;;7.93;4.67;;;;;;;17.59;100.00;96218.63;1039599;28;20655;-69
2021/08/11 01:08:33;;;;;;;10.50;4.70;;;;;;;17.59;100.00;96224.03;1040621;28;20382;-69
2021/08/11 01:09:04;;;;;;;12.90;5.03;;;;;;;17.55;100.00;96221.16;1036384;28;20438;-69
2021/08/11 01:09:34;;;;;;;13.03;5.10;;;;;;;17.56;100.00;96224.66;1032415;28;20034;-69
2021/08/11 01:10:05;;;;;;;12.77;4.80;;;;;;;17.54;100.00;96221.47;1032396;28;20033;-69
2021/08/11 01:10:36;;;;;;;10.95;4.50;;;;;;;17.55;100.00;96217.66;1032562;28;20034;-69
2021/08/11 01:11:06;;;;;;;11.03;4.30;;;;;;;17.54;100.00;96214.16;1032550;28;20030;-69
2021/08/11 01:11:37;;;;;;;9.77;4.43;;;;;;;17.55;100.00;96225.75;1032394;28;20085;-69
2021/08/11 01:12:07;;;;;;;10.93;4.50;;;;;;;17.55;100.00;96220.34;1032485;28;20030;-69
2021/08/11 01:12:38;;;;;;;11.33;4.83;;;;;;;17.54;100.00;96221.47;1036560;28;20029;-69
2021/08/11 01:13:13;;;;;;;8.03;4.70;;;;;;;17.53;100.00;96222.56;1040497;28;20071;-71
2021/08/11 01:13:43;;;;;;;13.10;5.20;;;;;;;17.48;100.00;96220.78;1040588;28;20022;-70
2021/08/11 01:14:14;;;;;;;12.20;4.63;;;;;;;17.46;100.00;96219.53;1040371;28;20018;-69
2021/08/11 01:14:44;;;;;;;11.33;4.60;;;;;;;17.48;100.00;96222.69;1040517;28;20021;-69
2021/08/11 01:15:15;;;;;;;9.40;3.87;;;;;;;17.47;100.00;96221.09;1040913;28;20028;-69
2021/08/11 01:15:48;;;;;;;12.63;5.43;;;;;;;17.45;100.00;96224.09;1044648;28;20028;-69
2021/08/11 01:16:18;;;;;;;9.30;4.82;;;;;;;17.45;100.00;96221.41;1044504;28;20082;-69
2021/08/11 01:16:49;;;;;;;13.97;5.03;;;;;;;17.44;100.00;96224.41;1043983;28;20558;-69
2021/08/11 01:17:26;;;;;;;9.60;4.80;;;;;;;17.43;100.00;96220.91;1040799;28;20027;-69
2021/08/11 01:17:57;;;;;;;10.95;5.15;;;;;;;17.45;100.00;96224.09;1042762;28;20032;-69
2021/08/11 01:18:28;;;;;;;14.10;5.30;;;;;;;17.44;100.00;96217.09;1044870;28;20681;-69
2021/08/11 01:18:58;;;;;;;8.17;4.63;;;;;;;17.43;100.00;96223.63;1044870;28;20525;-69
2021/08/11 01:19:28;;;;;;;8.83;4.97;;;;;;;17.42;100.00;96224.72;1044974;28;20029;-69
2021/08/11 01:19:59;;;;;;;9.57;4.70;;;;;;;17.42;100.00;96222.03;1040524;28;20029;-69
2021/08/11 01:20:30;;;;;;;10.63;4.85;;;;;;;17.42;100.00;96224.72;1036336;28;20513;-69
2021/08/11 01:21:11;;;;;;;12.90;4.80;;;;;;;17.43;100.00;96226.31;1032228;28;20081;-69
2021/08/11 01:21:48;;;;;;;9.07;4.50;;;;;;;17.44;100.00;96225.22;1031512;28;20437;-69
2021/08/11 01:22:24;;;;;;;8.23;4.50;;;;;;;17.46;100.00;96235.72;1034769;28;20014;-69
2021/08/11 01:23:00;;;;;;;7.53;3.88;;;;;;;17.47;100.00;96231.91;1039444;28;20029;-69
2021/08/11 01:23:38;;;;;;;12.88;5.00;;;;;;;17.45;100.00;96229.50;1035081;28;20018;-69
2021/08/11 01:24:26;;;;;;;8.65;4.88;;;;;;;17.46;100.00;96236.53;1030978;28;20019;-69
2021/08/11 01:25:23;;;;;;;8.48;4.50;;;;;;;17.42;100.00;96233.63;1032410;28;20037;-70
2021/08/11 01:25:57;;;;;;;12.27;4.70;;;;;;;17.47;100.00;96232.72;1040657;28;20446;-70
2021/08/11 01:27:26;;;;;;;8.90;4.68;;;;;;;17.47;100.00;96230.00;1044635;28;20013;-69
2021/08/11 01:28:08;;;;;;;9.65;4.68;;;;;;;17.44;100.00;96232.53;1036067;28;21441;-70
2021/08/11 01:28:54;;;;;;;14.98;5.45;;;;;;;17.43;100.00;96226.31;1036268;28;20064;-70
2021/08/11 01:29:41;;;;;;;9.82;5.45;;;;;;;17.47;100.00;96230.00;1028217;28;20027;-69
2021/08/11 01:30:35;;;;;;;10.20;5.00;;;;;;;17.47;100.00;96227.31;1027246;28;20061;-70
2021/08/11 01:31:19;;;;;;;11.02;5.40;;;;;;;17.45;100.00;96221.41;1031625;28;20105;-70
2021/08/11 01:31:56;;;;;;;7.30;4.60;;;;;;;17.47;100.00;96232.72;1031856;28;20019;-70
2021/08/11 01:32:45;;;;;;;12.43;4.72;;;;;;;17.47;100.00;96224.59;1032166;28;20416;-70
2021/08/11 01:33:27;;;;;;;9.77;5.30;;;;;;;17.43;100.00;96229.03;1032117;28;20149;-70
2021/08/11 01:33:58;;;;;;;10.40;5.22;;;;;;;17.45;100.00;96224.09;1034161;28;20045;-69
2021/08/11 01:34:32;;;;;;;9.65;5.00;;;;;;;17.48;100.00;96233.50;1036513;28;20014;-69
2021/08/11 01:35:02;;;;;;;13.27;4.68;;;;;;;17.50;100.00;96225.88;1032304;28;20029;-69
2021/08/11 01:35:38;;;;;;;11.57;5.23;;;;;;;17.49;100.00;96233.19;1032374;28;20084;-69
2021/08/11 01:36:30;;;;;;;8.52;4.38;;;;;;;17.49;100.00;96224.28;1029661;28;20412;-69
2021/08/11 01:37:02;;;;;;;8.57;4.55;;;;;;;17.45;100.00;96218.69;1035976;28;20483;-69
2021/08/11 01:37:32;;;;;;;8.98;4.75;;;;;;;17.44;100.00;96227.91;1044068;28;20107;-69
2021/08/11 01:38:03;;;;;;;7.23;4.10;;;;;;;17.45;100.00;96223.31;1039296;28;20030;-70
2021/08/11 01:38:34;;;;;;;8.13;4.83;;;;;;;17.45;100.00;96218.69;1040463;28;20025;-69
2021/08/11 01:39:07;;;;;;;11.63;4.90;;;;;;;17.45;100.00;96226.00;1036392;28;20486;-70
2021/08/11 01:39:43;;;;;;;6.50;4.35;;;;;;;17.42;100.00;96225.53;1036857;28;20030;-69
2021/08/11 01:40:17;;;;;;;9.02;4.20;;;;;;;17.43;100.00;96220.91;1036256;28;20030;-70
2021/08/11 01:40:51;;;;;;;12.65;4.35;;;;;;;17.45;100.00;96218.69;1029919;28;20022;-69
2021/08/11 01:41:24;;;;;;;9.02;4.88;;;;;;;17.42;100.00;96220.13;1034079;28;20073;-69
2021/08/11 01:42:08;;;;;;;9.38;4.70;;;;;;;17.35;100.00;96224.34;1034808;28;20018;-69
2021/08/11 01:42:39;;;;;;;9.93;4.78;;;;;;;17.38;100.00;96227.25;1037693;28;20403;-70
2021/08/11 01:43:09;;;;;;;7.18;4.18;;;;;;;17.38;100.00;96221.84;1036284;28;20490;-70
2021/08/11 01:43:43;;;;;;;11.40;5.30;;;;;;;17.39;100.00;96226.13;1036485;28;20014;-70
2021/08/11 01:44:13;;;;;;;11.63;4.53;;;;;;;17.39;100.00;96220.72;1032881;28;20058;-69
2021/08/11 01:45:05;;;;;;;12.93;4.70;;;;;;;17.35;100.00;96227.88;1032765;28;20076;-69
2021/08/11 01:45:40;;;;;;;13.82;5.22;;;;;;;17.34;100.00;96225.47;1036279;28;20426;-69
2021/08/11 01:46:11;;;;;;;16.45;4.85;;;;;;;17.36;100.00;96221.34;1031752;28;20054;-69
2021/08/11 01:46:41;;;;;;;8.13;4.07;;;;;;;17.37;100.00;96222.94;1031763;28;20349;-69
2021/08/11 01:47:13;;;;;;;11.03;4.60;;;;;;;17.36;100.00;96228.66;1028234;28;20587;-69
2021/08/11 01:47:52;;;;;;;11.98;4.57;;;;;;;17.36;100.00;96226.75;1029127;28;20476;-69
2021/08/11 01:48:27;;;;;;;11.18;4.15;;;;;;;17.34;100.00;96223.56;1033703;28;20522;-69
2021/08/11 01:48:59;;;;;;;7.90;4.30;;;;;;;17.31;100.00;96228.78;1034258;28;20101;-70
2021/08/11 01:49:29;;;;;;;8.52;4.45;;;;;;;17.32;100.00;96224.97;1030304;28;20170;-70
2021/08/11 01:50:00;;;;;;;13.17;4.73;;;;;;;17.29;100.00;96226.38;1036106;28;20510;-70
2021/08/11 01:50:32;;;;;;;12.73;4.30;;;;;;;17.31;100.00;96226.88;1036357;28;20026;-69
2021/08/11 01:51:02;;;;;;;10.40;4.78;;;;;;;17.29;100.00;96222.88;1040349;28;20028;-70
2021/08/11 01:51:33;;;;;;;8.70;4.90;;;;;;;17.31;100.00;96213.38;1028267;28;20022;-69
2021/08/11 01:52:04;;;;;;;7.63;4.10;;;;;;;17.30;100.00;96221.78;1029998;28;20022;-69
2021/08/11 01:52:40;;;;;;;9.95;4.60;;;;;;;17.30;100.00;96222.59;1029822;28;20472;-70
2021/08/11 01:53:12;;;;;;;8.10;4.72;;;;;;;17.31;100.00;96220.69;1034039;28;20022;-69
2021/08/11 01:53:42;;;;;;;10.93;4.60;;;;;;;17.30;100.00;96219.06;1040384;28;20502;-70
2021/08/11 01:54:13;;;;;;;7.30;3.90;;;;;;;17.30;100.00;96227.16;1040362;28;20021;-69
2021/08/11 01:54:43;;;;;;;8.83;4.17;;;;;;;17.30;100.00;96219.06;1037211;28;20014;-69
2021/08/11 01:55:14;;;;;;;10.77;4.23;;;;;;;17.31;100.00;96224.19;1036054;28;20104;-69
2021/08/11 01:55:52;;;;;;;10.33;4.83;;;;;;;17.31;100.00;96226.09;1032368;28;20022;-69
2021/08/11 01:56:23;;;;;;;11.93;4.70;;;;;;;17.28;100.00;96218.59;1036699;28;20096;-70
2021/08/11 01:56:54;;;;;;;7.47;3.90;;;;;;;17.31;100.00;96218.00;1037365;28;20499;-70
2021/08/11 01:57:24;;;;;;;12.93;4.65;;;;;;;17.30;100.00;96221.78;1036260;28;20018;-69
2021/08/11 01:57:54;;;;;;;9.67;5.27;;;;;;;17.25;100.00;96220.00;1032238;28;20404;-70
2021/08/11 01:58:27;;;;;;;11.20;4.60;;;;;;;17.25;100.00;96220.00;1032319;28;20104;-69
2021/08/11 01:58:57;;;;;;;8.68;4.53;;;;;;;17.25;100.00;96217.31;1032741;28;20177;-69
2021/08/11 01:59:27;;;;;;;6.37;4.37;;;;;;;17.25;100.00;96220.00;1036508;28;20117;-69
2021/08/11 01:59:58;;;;;;;9.63;4.40;;;;;;;17.25;100.00;96213.78;1040311;28;20135;-69
2021/08/11 02:00:28;;;;;;;9.97;4.40;;;;;;;17.23;100.00;96214.09;1040589;28;20123;-70
2021/08/11 02:01:01;;;;;;;8.73;4.77;;;;;;;17.22;100.00;96219.81;1040234;28;20048;-70
2021/08/11 02:01:31;;;;;;;9.73;4.80;;;;;;;17.23;100.00;96219.50;1040039;28;20112;-70
2021/08/11 02:02:02;;;;;;;8.57;4.83;;;;;;;17.24;100.00;96217.59;1040610;28;20026;-70
2021/08/11 02:02:32;;;;;;;8.60;5.00;;;;;;;17.25;100.00;96213.78;1044402;28;20021;-70
2021/08/11 02:03:03;;;;;;;9.40;4.83;;;;;;;17.25;100.00;96214.63;1044220;28;20031;-70
2021/08/11 02:03:33;;;;;;;9.97;4.80;;;;;;;17.26;100.00;96212.72;1039053;28;20470;-70
2021/08/11 02:04:05;;;;;;;8.97;4.77;;;;;;;17.28;100.00;96215.88;1036229;28;20467;-70
2021/08/11 02:04:35;;;;;;;9.70;4.32;;;;;;;17.27;100.00;96217.78;1028081;28;20019;-70
2021/08/11 02:05:07;;;;;;;9.67;4.30;;;;;;;17.27;100.00;96211.59;1028289;28;20034;-70
2021/08/11 02:05:38;;;;;;;9.95;4.38;;;;;;;17.23;100.00;96219.50;1028134;28;20027;-70
2021/08/11 02:06:08;;;;;;;9.53;5.10;;;;;;;17.23;100.00;96216.81;1024364;28;20028;-70
2021/08/11 02:06:39;;;;;;;8.17;4.07;;;;;;;17.21;100.00;96210.91;1028637;28;20019;-70
2021/08/11 02:07:10;;;;;;;7.17;4.83;;;;;;;17.20;100.00;96219.31;1032178;28;20014;-70
2021/08/11 02:07:41;;;;;;;9.43;5.30;;;;;;;17.22;100.00;96217.13;1032471;28;20061;-70
2021/08/11 02:08:11;;;;;;;11.50;4.13;;;;;;;17.22;100.00;96212.50;1040334;28;20032;-70
2021/08/11 02:08:43;;;;;;;7.67;4.87;;;;;;;17.23;100.00;96216.00;1032693;28;20261;-70
2021/08/11 02:09:13;;;;;;;10.60;4.53;;;;;;;17.22;100.00;96217.13;1032143;28;20364;-70
2021/08/11 02:09:44;;;;;;;9.93;5.13;;;;;;;17.23;100.00;96213.31;1024065;29;20024;-70
2021/08/11 02:10:15;;;;;;;8.93;4.33;;;;;;;17.24;100.00;96212.19;1028286;28;20027;-70
2021/08/11 02:10:45;;;;;;;9.48;4.57;;;;;;;17.24;100.00;96213.00;1032513;28;20057;-70
2021/08/11 02:11:16;;;;;;;8.17;4.57;;;;;;;17.24;100.00;96214.91;1036313;28;20037;-70
2021/08/11 02:11:46;;;;;;;8.40;4.50;;;;;;;17.24;100.00;96213.00;1040395;28;20030;-70
2021/08/11 02:12:16;;;;;;;9.87;4.87;;;;;;;17.24;100.00;96212.19;1040160;28;20029;-70
2021/08/11 02:12:47;;;;;;;8.33;4.60;;;;;;;17.23;100.00;96211.41;1040292;28;20103;-70
2021/08/11 02:13:17;;;;;;;10.80;4.60;;;;;;;17.25;100.00;96213.78;1035645;28;20569;-70
2021/08/11 02:13:48;;;;;;;10.53;4.87;;;;;;;17.22;100.00;96206.31;1035981;28;20081;-71
2021/08/11 02:14:18;;;;;;;8.77;4.87;;;;;;;17.21;100.00;96215.53;1032136;28;20027;-70
2021/08/11 02:14:49;;;;;;;13.40;4.33;;;;;;;17.20;100.00;96205.81;1036188;28;20102;-70
2021/08/11 02:15:19;;;;;;;11.43;5.40;;;;;;;17.20;100.00;96212.03;1036019;28;20026;-70
2021/08/11 02:15:50;;;;;;;9.40;4.73;;;;;;;17.18;100.00;96208.03;1032213;28;20023;-70
2021/08/11 02:16:20;;;;;;;11.20;5.43;;;;;;;17.19;100.00;96215.03;1036176;28;20379;-70
2021/08/11 02:16:51;;;;;;;10.50;4.43;;;;;;;17.19;100.00;96210.41;1028094;28;20047;-70
2021/08/11 02:17:21;;;;;;;10.03;4.90;;;;;;;17.23;100.00;96213.31;1036553;28;20021;-70
2021/08/11 02:17:52;;;;;;;8.87;4.70;;;;;;;17.21;100.00;96215.53;1040314;28;20022;-70
2021/08/11 02:18:22;;;;;;;9.30;4.37;;;;;;;17.17;100.00;96206.44;1040290;28;20014;-70
2021/08/11 02:18:52;;;;;;;10.20;4.80;;;;;;;17.18;100.00;96216.94;1044525;28;20017;-70
2021/08/11 02:19:23;;;;;;;10.37;5.13;;;;;;;17.20;100.00;96212.03;1044258;28;20028;-70
2021/08/11 02:19:53;;;;;;;9.23;4.70;;;;;;;17.20;100.00;96212.03;1044487;28;20050;-70
2021/08/11 02:20:24;;;;;;;8.23;4.73;;;;;;;17.19;100.00;96209.63;1044869;28;20029;-70
2021/08/11 02:20:54;;;;;;;8.60;4.90;;;;;;;17.18;100.00;96210.72;1044799;28;20036;-70
2021/08/11 02:21:25;;;;;;;9.20;4.90;;;;;;;17.19;100.00;96213.13;1044747;28;20021;-69
2021/08/11 02:21:55;;;;;;;8.30;4.20;;;;;;;17.19;100.00;96204.22;1044659;28;20477;-70
2021/08/11 02:22:25;;;;;;;8.73;4.87;;;;;;;17.19;100.00;96212.31;1044829;28;20403;-70
2021/08/11 02:22:56;;;;;;;8.27;4.87;;;;;;;17.16;100.00;96211.03;1044720;28;20462;-70
2021/08/11 02:23:26;;;;;;;8.73;4.50;;;;;;;17.15;100.00;96220.25;1044076;28;20061;-70
2021/08/11 02:23:57;;;;;;;9.27;5.23;;;;;;;17.12;100.00;96220.84;1044734;28;20539;-70
2021/08/11 02:24:27;;;;;;;7.20;4.53;;;;;;;17.13;100.00;96212.44;1045381;28;20021;-70
2021/08/11 02:24:58;;;;;;;12.33;5.07;;;;;;;17.11;100.00;96225.47;1046666;28;20025;-70
2021/08/11 02:25:28;;;;;;;10.00;4.57;;;;;;;17.11;100.00;96217.34;1039842;28;20486;-70
2021/08/11 02:26:14;;;;;;;12.13;4.90;;;;;;;17.11;100.00;96219.25;1040356;28;20037;-70
2021/08/11 02:26:50;;;;;;;11.90;5.15;;;;;;;17.05;100.00;96217.78;1042183;28;20083;-70
2021/08/11 02:27:22;;;;;;;8.18;5.05;;;;;;;17.06;100.00;96219.38;1039099;28;20075;-70
2021/08/11 02:27:55;;;;;;;12.25;4.95;;;;;;;17.07;100.00;96215.56;1032179;28;20022;-70
2021/08/11 02:28:35;;;;;;;9.13;5.55;;;;;;;17.05;100.00;96220.50;1028149;28;20054;-70
2021/08/11 02:29:08;;;;;;;11.00;4.95;;;;;;;17.07;100.00;96218.28;1032200;28;20018;-70